createdAt,value
2023-05-08T00:00:26.170Z,86.19
2023-05-08T00:02:56.149Z,86.29
2023-05-08T00:05:26.219Z,85.86
2023-05-08T00:08:01.471Z,86.33
2023-05-08T00:10:32.175Z,86.34
2023-05-08T00:13:04.598Z,86.74
2023-05-08T00:15:34.417Z,86.67
2023-05-08T00:18:04.214Z,86.99
2023-05-08T00:20:34.528Z,86.55
2023-05-08T00:23:04.262Z,86.44
2023-05-08T00:25:34.156Z,86.84
2023-05-08T00:28:06.552Z,86.68
2023-05-08T00:30:36.548Z,87.06
2023-05-08T00:33:06.519Z,87.23
2023-05-08T00:35:36.386Z,87.49
2023-05-08T00:38:06.174Z,87.80
2023-05-08T00:40:36.042Z,87.48
2023-05-08T00:43:08.436Z,87.44
2023-05-08T00:45:40.726Z,86.91
2023-05-08T00:48:11.108Z,87.16
2023-05-08T00:50:40.931Z,88.01
2023-05-08T00:53:10.895Z,87.99
2023-05-08T00:55:41.227Z,88.38
2023-05-08T00:58:14.140Z,88.73
2023-05-08T01:00:46.781Z,88.98
2023-05-08T01:03:17.727Z,88.14
2023-05-08T01:05:48.604Z,87.95
2023-05-08T01:08:18.753Z,88.13
2023-05-08T01:11:04.690Z,89.02
2023-05-08T01:13:52.696Z,89.47
2023-05-08T01:16:31.447Z,88.44
2023-05-08T01:19:09.984Z,89.18
2023-05-08T01:21:46.899Z,89.15
2023-05-08T01:24:45.461Z,89.64
2023-05-08T01:27:43.589Z,88.76
2023-05-08T01:30:48.824Z,89.08
2023-05-08T01:33:27.547Z,89.72
2023-05-08T01:36:02.161Z,90.08
2023-05-08T01:38:36.394Z,91.06
2023-05-08T01:41:11.775Z,90.83
2023-05-08T01:43:50.085Z,90.98
2023-05-08T01:46:25.645Z,91.93
2023-05-08T01:49:06.587Z,91.78
2023-05-08T01:51:43.907Z,92.04
2023-05-08T01:54:18.655Z,91.59
2023-05-08T01:56:50.843Z,91.88
2023-05-08T01:59:24.853Z,92.60
2023-05-08T02:01:58.914Z,92.17
2023-05-08T02:04:32.561Z,92.44
2023-05-08T02:07:03.783Z,92.66
2023-05-08T02:09:34.386Z,91.88
2023-05-08T02:12:05.845Z,91.50
2023-05-08T02:14:36.781Z,91.97
2023-05-08T02:17:09.588Z,91.58
2023-05-08T02:19:44.103Z,92.67
2023-05-08T02:22:14.884Z,91.75
2023-05-08T02:24:48.289Z,92.57
2023-05-08T02:27:19.476Z,92.71
2023-05-08T02:29:49.899Z,92.03
2023-05-08T02:32:21.902Z,91.98
2023-05-08T02:35:03.228Z,92.20
2023-05-08T02:37:34.880Z,92.89
2023-05-08T02:40:06.838Z,92.62
2023-05-08T02:42:36.718Z,92.80
2023-05-08T02:45:07.207Z,92.59
2023-05-08T02:47:48.973Z,91.96
2023-05-08T02:50:25.764Z,92.37
2023-05-08T02:53:03.250Z,92.89
2023-05-08T02:55:43.259Z,92.88
2023-05-08T02:58:21.817Z,92.61
2023-05-08T03:00:57.970Z,92.01
2023-05-08T03:03:31.805Z,91.72
2023-05-08T03:06:06.374Z,92.02
2023-05-08T03:08:38.125Z,91.88
2023-05-08T03:11:14.701Z,91.64
2023-05-08T03:13:47.028Z,91.85
2023-05-08T03:16:21.285Z,91.77
2023-05-08T03:18:55.786Z,92.72
2023-05-08T03:21:32.033Z,92.75
2023-05-08T03:24:05.029Z,92.38
2023-05-08T03:26:35.222Z,92.94
2023-05-08T03:29:05.844Z,92.74
2023-05-08T03:31:38.019Z,92.87
2023-05-08T03:34:09.603Z,92.95
2023-05-08T03:36:42.429Z,92.77
2023-05-08T03:39:12.645Z,93.75
2023-05-08T03:41:43.304Z,93.92
2023-05-08T03:44:14.526Z,93.46
2023-05-08T03:46:45.530Z,92.94
2023-05-08T03:49:17.230Z,93.30
2023-05-08T03:51:50.377Z,93.23
2023-05-08T03:54:20.218Z,93.15
2023-05-08T03:56:50.061Z,92.91
2023-05-08T03:59:27.569Z,93.13
2023-05-08T04:02:08.085Z,94.48
2023-05-08T04:04:42.670Z,94.02
2023-05-08T04:07:27.331Z,93.02
2023-05-08T04:10:03.277Z,92.83
2023-05-08T04:12:42.631Z,92.95
2023-05-08T04:15:17.380Z,93.57
2023-05-08T04:17:52.784Z,93.28
2023-05-08T04:20:24.996Z,94.26
2023-05-08T04:22:58.701Z,94.56
2023-05-08T04:25:29.296Z,93.70
2023-05-08T04:27:59.295Z,92.65
2023-05-08T04:30:30.631Z,92.49
2023-05-08T04:33:02.072Z,93.08
2023-05-08T04:35:32.795Z,92.58
2023-05-08T04:38:05.791Z,92.10
2023-05-08T04:40:35.719Z,93.20
2023-05-08T04:43:06.262Z,92.67
2023-05-08T04:45:36.333Z,92.85
2023-05-08T04:48:06.443Z,92.86
2023-05-08T04:50:36.326Z,92.63
2023-05-08T04:53:09.009Z,93.13
2023-05-08T04:55:39.142Z,92.38
2023-05-08T04:58:09.216Z,91.82
2023-05-08T05:00:39.464Z,91.61
2023-05-08T05:03:09.393Z,91.48
2023-05-08T05:05:39.357Z,90.89
2023-05-08T05:08:14.481Z,91.04
2023-05-08T05:10:44.471Z,91.30
2023-05-08T05:13:14.337Z,91.62
2023-05-08T05:15:45.188Z,91.79
2023-05-08T05:18:16.026Z,90.79
2023-05-08T05:20:46.242Z,90.97
2023-05-08T05:23:18.957Z,90.46
2023-05-08T05:25:48.803Z,90.04
2023-05-08T05:28:19.389Z,89.11
2023-05-08T05:30:50.117Z,88.85
2023-05-08T05:33:20.337Z,89.14
2023-05-08T05:35:50.300Z,88.97
2023-05-08T05:38:22.759Z,89.29
2023-05-08T05:40:52.681Z,88.28
2023-05-08T05:43:22.464Z,87.10
2023-05-08T05:45:52.266Z,86.56
2023-05-08T05:48:22.471Z,85.05
2023-05-08T05:50:52.684Z,84.75
2023-05-08T05:53:25.502Z,83.66
2023-05-08T05:55:55.863Z,83.33
2023-05-08T05:58:26.044Z,83.59
2023-05-08T06:00:56.108Z,82.45
2023-05-08T06:03:25.962Z,80.57
2023-05-08T06:05:56.604Z,79.95
2023-05-08T06:08:30.824Z,78.89
2023-05-08T06:11:03.844Z,78.76
2023-05-08T06:13:33.953Z,76.73
2023-05-08T06:16:04.169Z,75.84
2023-05-08T06:18:33.965Z,75.67
2023-05-08T06:21:03.788Z,76.44
2023-05-08T06:23:36.184Z,76.39
2023-05-08T06:26:06.206Z,74.73
2023-05-08T06:28:36.391Z,74.72
2023-05-08T06:31:06.461Z,75.33
2023-05-08T06:33:36.280Z,75.45
2023-05-08T06:36:07.400Z,74.64
2023-05-08T06:38:39.749Z,74.93
2023-05-08T06:41:09.618Z,75.36
2023-05-08T06:43:39.387Z,76.20
2023-05-08T06:46:09.211Z,76.18
2023-05-08T06:48:39.058Z,76.53
2023-05-08T06:51:08.939Z,76.54
2023-05-08T06:53:41.285Z,77.35
2023-05-08T06:56:11.147Z,78.09
2023-05-08T06:58:40.909Z,77.93
2023-05-08T07:01:10.855Z,76.72
2023-05-08T07:03:41.788Z,73.99
2023-05-08T07:06:12.334Z,73.13
2023-05-08T07:08:44.724Z,73.04
2023-05-08T07:11:14.533Z,73.27
2023-05-08T07:13:46.368Z,74.00
2023-05-08T07:16:16.491Z,74.55
2023-05-08T07:18:46.815Z,74.15
2023-05-08T07:21:18.232Z,74.38
2023-05-08T07:23:51.891Z,73.75
2023-05-08T07:26:21.674Z,74.33
2023-05-08T07:28:53.975Z,74.11
2023-05-08T07:31:24.151Z,73.71
2023-05-08T07:33:53.954Z,73.26
2023-05-08T07:36:23.793Z,72.44
2023-05-08T07:38:56.820Z,73.03
2023-05-08T07:41:26.723Z,73.28
2023-05-08T07:43:56.558Z,71.72
2023-05-08T07:46:26.559Z,72.16
2023-05-08T07:48:56.540Z,73.56
2023-05-08T07:51:26.564Z,73.65
2023-05-08T07:53:58.964Z,73.90
2023-05-08T07:56:28.859Z,73.75
2023-05-08T07:58:58.637Z,70.53
2023-05-08T08:01:28.417Z,69.87
2023-05-08T08:03:58.328Z,69.88
2023-05-08T08:06:28.841Z,69.57
2023-05-08T08:09:01.251Z,69.39
2023-05-08T08:11:31.023Z,69.82
2023-05-08T08:14:00.907Z,69.60
2023-05-08T08:16:33.269Z,68.70
2023-05-08T08:19:03.026Z,69.68
2023-05-08T08:21:33.209Z,70.46
2023-05-08T08:24:05.560Z,69.02
2023-05-08T08:26:35.516Z,68.94
2023-05-08T08:29:05.350Z,69.30
2023-05-08T08:31:35.264Z,68.04
2023-05-08T08:34:05.211Z,68.31
2023-05-08T08:36:35.573Z,69.43
2023-05-08T08:39:10.394Z,69.79
2023-05-08T08:41:42.242Z,68.99
2023-05-08T08:44:12.369Z,68.43
2023-05-08T08:46:48.128Z,68.14
2023-05-08T08:49:21.757Z,67.83
2023-05-08T08:51:55.876Z,68.95
2023-05-08T08:54:32.393Z,68.35
2023-05-08T08:57:04.705Z,68.17
2023-05-08T08:59:35.703Z,68.04
2023-05-08T09:02:18.038Z,67.87
2023-05-08T09:04:48.053Z,69.16
2023-05-08T09:07:18.235Z,71.11
2023-05-08T09:09:51.187Z,71.80
2023-05-08T09:12:21.193Z,70.44
2023-05-08T09:14:51.142Z,70.20
2023-05-08T09:17:20.894Z,68.50
2023-05-08T09:19:52.090Z,68.72
2023-05-08T09:22:24.504Z,68.87
2023-05-08T09:25:01.185Z,69.60
2023-05-08T09:27:33.018Z,68.73
2023-05-08T09:30:04.951Z,68.75
2023-05-08T09:32:37.866Z,70.23
2023-05-08T09:35:09.793Z,69.12
2023-05-08T09:37:41.815Z,69.77
2023-05-08T09:40:22.246Z,68.88
2023-05-08T09:42:53.088Z,66.99
2023-05-08T09:45:31.452Z,67.97
2023-05-08T09:48:02.016Z,67.62
2023-05-08T09:50:33.280Z,67.68
2023-05-08T09:53:03.172Z,66.11
2023-05-08T09:55:49.546Z,65.40
2023-05-08T09:58:19.371Z,66.58
2023-05-08T10:00:49.211Z,65.59
2023-05-08T10:03:19.024Z,65.24
2023-05-08T10:05:48.769Z,64.13
2023-05-08T10:08:23.374Z,63.89
2023-05-08T10:10:55.887Z,64.32
2023-05-08T10:13:26.348Z,65.24
2023-05-08T10:15:58.087Z,63.28
2023-05-08T10:18:32.972Z,63.90
2023-05-08T10:21:09.282Z,64.01
2023-05-08T10:23:40.739Z,63.11
2023-05-08T10:26:15.518Z,63.59
2023-05-08T10:28:49.212Z,63.73
2023-05-08T10:31:21.151Z,63.25
2023-05-08T10:33:54.102Z,62.84
2023-05-08T10:36:24.793Z,63.05
2023-05-08T10:38:55.008Z,63.95
2023-05-08T10:41:28.906Z,61.71
2023-05-08T10:44:01.620Z,63.08
2023-05-08T10:46:39.394Z,61.83
2023-05-08T10:49:22.943Z,63.14
2023-05-08T10:52:05.026Z,62.70
2023-05-08T10:54:45.262Z,61.29
2023-05-08T10:57:18.191Z,61.57
2023-05-08T10:59:49.481Z,61.41
2023-05-08T11:02:19.509Z,62.33
2023-05-08T11:04:51.104Z,62.07
2023-05-08T11:07:20.961Z,61.52
2023-05-08T11:09:51.248Z,61.93
2023-05-08T11:12:30.742Z,60.66
2023-05-08T11:15:06.236Z,61.32
2023-05-08T11:17:36.848Z,61.45
2023-05-08T11:20:09.046Z,62.28
2023-05-08T11:22:39.529Z,60.71
2023-05-08T11:25:11.941Z,60.66
2023-05-08T11:28:17.964Z,59.63
2023-05-08T11:30:50.428Z,61.26
2023-05-08T11:33:21.215Z,60.98
2023-05-08T11:35:56.503Z,59.21
2023-05-08T11:38:28.961Z,58.71
2023-05-08T11:41:01.310Z,59.17
2023-05-08T11:44:09.515Z,59.13
2023-05-08T11:46:45.542Z,58.90
2023-05-08T11:49:18.907Z,59.20
2023-05-08T11:51:55.274Z,59.11
2023-05-08T11:54:25.699Z,58.76
2023-05-08T11:56:57.655Z,59.77
2023-05-08T11:59:27.501Z,59.23
2023-05-08T12:02:08.679Z,59.60
2023-05-08T12:04:46.668Z,57.94
2023-05-08T12:07:17.063Z,59.43
2023-05-08T12:09:48.818Z,58.85
2023-05-08T12:12:18.686Z,57.46
2023-05-08T12:14:52.660Z,59.48
2023-05-08T12:17:25.204Z,59.95
2023-05-08T12:20:04.309Z,58.26
2023-05-08T12:22:34.356Z,58.85
2023-05-08T12:25:06.756Z,57.85
2023-05-08T12:27:36.617Z,57.24
2023-05-08T12:30:10.972Z,56.21
2023-05-08T12:32:44.922Z,56.21
2023-05-08T12:35:16.467Z,56.97
2023-05-08T12:37:48.425Z,56.70
2023-05-08T12:40:29.310Z,55.91
2023-05-08T12:42:59.202Z,57.46
2023-05-08T12:45:31.684Z,57.52
2023-05-08T12:48:05.685Z,59.32
2023-05-08T12:50:37.888Z,59.18
2023-05-08T12:53:09.438Z,57.84
2023-05-08T12:55:40.997Z,58.16
2023-05-08T12:58:15.069Z,58.82
2023-05-08T13:00:47.253Z,58.80
2023-05-08T13:03:26.908Z,58.96
2023-05-08T13:05:58.934Z,59.69
2023-05-08T13:08:34.345Z,58.09
2023-05-08T13:11:05.444Z,58.10
2023-05-08T13:13:36.726Z,58.75
2023-05-08T13:16:08.512Z,58.88
2023-05-08T13:18:40.974Z,58.58
2023-05-08T13:21:10.763Z,58.16
2023-05-08T13:23:42.764Z,58.33
2023-05-08T13:26:12.708Z,58.66
2023-05-08T13:28:42.471Z,59.64
2023-05-08T13:31:12.420Z,58.66
2023-05-08T13:33:44.898Z,58.07
2023-05-08T13:36:14.760Z,59.09
2023-05-08T13:38:44.537Z,58.58
2023-05-08T13:41:25.270Z,59.58
2023-05-08T13:43:55.044Z,58.53
2023-05-08T13:46:24.967Z,59.02
2023-05-08T13:48:54.780Z,59.06
2023-05-08T13:51:24.535Z,58.68
2023-05-08T13:53:54.338Z,59.31
2023-05-08T13:56:26.786Z,58.09
2023-05-08T13:58:56.597Z,58.62
2023-05-08T14:01:27.961Z,59.70
2023-05-08T14:03:58.149Z,58.12
2023-05-08T14:06:28.111Z,58.79
2023-05-08T14:08:57.887Z,58.93
2023-05-08T14:11:30.378Z,58.02
2023-05-08T14:14:00.240Z,57.83
2023-05-08T14:16:31.068Z,57.70
2023-05-08T14:19:01.344Z,58.69
2023-05-08T14:21:31.525Z,58.17
2023-05-08T14:24:01.450Z,57.62
2023-05-08T14:26:33.811Z,57.51
2023-05-08T14:29:03.612Z,58.16
2023-05-08T14:31:33.439Z,59.16
2023-05-08T14:34:03.280Z,57.85
2023-05-08T14:36:33.053Z,57.55
2023-05-08T14:39:03.124Z,57.89
2023-05-08T14:41:35.527Z,57.51
2023-05-08T14:44:05.365Z,58.39
2023-05-08T14:46:35.228Z,56.35
2023-05-08T14:49:05.621Z,57.59
2023-05-08T14:51:35.464Z,56.59
2023-05-08T14:54:05.644Z,57.27
2023-05-08T14:56:47.118Z,57.17
2023-05-08T14:59:17.556Z,57.16
2023-05-08T15:01:47.457Z,57.07
2023-05-08T15:04:17.429Z,56.60
2023-05-08T15:06:47.244Z,57.03
2023-05-08T15:09:17.222Z,57.20
2023-05-08T15:11:49.613Z,57.80
2023-05-08T15:14:19.424Z,57.34
2023-05-08T15:16:49.351Z,57.68
2023-05-08T15:19:19.617Z,58.33
2023-05-08T15:21:49.394Z,56.96
2023-05-08T15:24:19.205Z,56.32
2023-05-08T15:26:51.708Z,55.97
2023-05-08T15:29:21.510Z,56.69
2023-05-08T15:31:53.330Z,56.70
2023-05-08T15:34:26.261Z,57.03
2023-05-08T15:36:56.330Z,54.55
2023-05-08T15:39:26.216Z,54.77
2023-05-08T15:41:58.645Z,54.16
2023-05-08T15:44:42.140Z,53.93
2023-05-08T15:47:19.632Z,54.71
2023-05-08T15:49:49.481Z,54.90
2023-05-08T15:52:19.990Z,54.47
2023-05-08T15:54:50.077Z,55.43
2023-05-08T15:57:22.454Z,55.99
2023-05-08T15:59:52.300Z,56.24
2023-05-08T16:02:22.206Z,56.16
2023-05-08T16:04:52.051Z,56.75
2023-05-08T16:07:21.879Z,55.92
2023-05-08T16:09:51.633Z,56.87
2023-05-08T16:12:24.071Z,57.28
2023-05-08T16:14:53.854Z,57.61
2023-05-08T16:17:23.670Z,58.37
2023-05-08T16:19:53.528Z,57.86
2023-05-08T16:22:23.441Z,57.94
2023-05-08T16:24:55.949Z,57.01
2023-05-08T16:27:28.506Z,56.83
2023-05-08T16:29:58.439Z,57.31
2023-05-08T16:32:28.435Z,57.41
2023-05-08T16:34:58.392Z,57.37
2023-05-08T16:37:28.340Z,56.65
2023-05-08T16:39:58.285Z,56.86
2023-05-08T16:42:30.935Z,57.13
2023-05-08T16:45:00.853Z,56.73
2023-05-08T16:47:30.857Z,57.40
2023-05-08T16:50:00.857Z,57.72
2023-05-08T16:52:30.892Z,57.52
2023-05-08T16:55:01.395Z,57.11
2023-05-08T16:57:34.199Z,57.07
2023-05-08T17:00:04.855Z,57.12
2023-05-08T17:02:35.106Z,57.57
2023-05-08T17:05:05.140Z,57.03
2023-05-08T17:07:35.050Z,58.10
2023-05-08T17:10:05.034Z,57.92
2023-05-08T17:12:37.753Z,57.81
2023-05-08T17:15:08.916Z,58.00
2023-05-08T17:17:38.881Z,57.90
2023-05-08T17:20:10.376Z,57.13
2023-05-08T17:22:40.266Z,57.45
2023-05-08T17:25:11.567Z,56.72
2023-05-08T17:27:44.008Z,56.54
2023-05-08T17:30:15.120Z,57.13
2023-05-08T17:32:46.427Z,57.22
2023-05-08T17:35:16.329Z,57.50
2023-05-08T17:37:46.232Z,57.49
2023-05-08T17:40:16.503Z,57.87
2023-05-08T17:42:48.936Z,56.70
2023-05-08T17:45:18.978Z,57.06
2023-05-08T17:47:48.854Z,58.16
2023-05-08T17:50:18.806Z,58.51
2023-05-08T17:52:48.612Z,59.11
2023-05-08T17:55:18.480Z,59.24
2023-05-08T17:57:50.948Z,58.96
2023-05-08T18:00:21.482Z,59.22
2023-05-08T18:02:51.384Z,58.63
2023-05-08T18:05:21.561Z,58.82
2023-05-08T18:07:52.427Z,58.80
2023-05-08T18:10:22.614Z,58.88
2023-05-08T18:12:55.056Z,59.09
2023-05-08T18:15:24.902Z,58.78
2023-05-08T18:17:54.789Z,59.17
2023-05-08T18:20:24.631Z,59.65
2023-05-08T18:22:54.451Z,59.70
2023-05-08T18:25:24.628Z,59.98
2023-05-08T18:27:59.027Z,60.04
2023-05-08T18:30:28.921Z,60.74
2023-05-08T18:32:58.786Z,60.81
2023-05-08T18:35:28.781Z,61.29
2023-05-08T18:37:58.613Z,60.86
2023-05-08T18:40:28.427Z,61.81
2023-05-08T18:43:00.879Z,62.08
2023-05-08T18:45:30.765Z,62.61
2023-05-08T18:48:00.651Z,62.97
2023-05-08T18:50:30.616Z,62.64
2023-05-08T18:53:00.469Z,62.07
2023-05-08T18:55:30.385Z,63.02
2023-05-08T18:58:02.983Z,63.05
2023-05-08T19:00:32.990Z,63.10
2023-05-08T19:03:03.074Z,63.32
2023-05-08T19:05:32.986Z,64.54
2023-05-08T19:08:02.849Z,64.54
2023-05-08T19:10:32.728Z,64.64
2023-05-08T19:13:05.567Z,64.79
2023-05-08T19:15:35.777Z,65.11
2023-05-08T19:18:06.574Z,64.98
2023-05-08T19:20:36.496Z,64.74
2023-05-08T19:23:06.322Z,64.87
2023-05-08T19:25:36.192Z,65.52
2023-05-08T19:28:08.721Z,65.39
2023-05-08T19:30:38.554Z,65.10
2023-05-08T19:33:08.586Z,64.96
2023-05-08T19:35:38.436Z,64.85
2023-05-08T19:38:08.283Z,64.71
2023-05-08T19:40:48.376Z,64.60
2023-05-08T19:43:28.805Z,64.57
2023-05-08T19:45:58.758Z,64.95
2023-05-08T19:48:28.765Z,64.75
2023-05-08T19:50:58.593Z,65.27
2023-05-08T19:53:28.577Z,65.31
2023-05-08T19:55:58.522Z,64.94
2023-05-08T19:58:31.861Z,65.33
2023-05-08T20:01:02.002Z,64.96
2023-05-08T20:03:31.899Z,64.84
2023-05-08T20:06:01.826Z,64.79
2023-05-08T20:08:31.699Z,65.20
2023-05-08T20:11:02.602Z,65.38
2023-05-08T20:13:35.186Z,64.61
2023-05-08T20:16:05.076Z,65.01
2023-05-08T20:18:36.929Z,64.73
2023-05-08T20:21:06.860Z,64.31
2023-05-08T20:23:37.880Z,64.05
2023-05-08T20:26:08.727Z,64.74
2023-05-08T20:28:41.364Z,64.76
2023-05-08T20:31:11.331Z,64.71
2023-05-08T20:33:41.225Z,64.82
2023-05-08T20:36:11.099Z,64.03
2023-05-08T20:38:41.082Z,63.89
2023-05-08T20:41:10.962Z,63.36
2023-05-08T20:43:43.882Z,62.06
2023-05-08T20:46:13.861Z,61.91
2023-05-08T20:48:43.821Z,62.24
2023-05-08T20:51:15.454Z,61.44
2023-05-08T20:53:45.922Z,61.92
2023-05-08T20:56:18.867Z,61.52
2023-05-08T20:58:51.908Z,61.15
2023-05-08T21:01:21.971Z,60.81
2023-05-08T21:03:51.916Z,60.55
2023-05-08T21:06:21.976Z,61.12
2023-05-08T21:08:51.919Z,60.87
2023-05-08T21:11:22.364Z,61.03
2023-05-08T21:13:55.067Z,59.59
2023-05-08T21:16:26.754Z,60.07
2023-05-08T21:18:58.369Z,60.13
2023-05-08T21:21:28.475Z,59.79
2023-05-08T21:23:58.279Z,59.41
2023-05-08T21:26:28.088Z,59.93
2023-05-08T21:29:02.533Z,60.28
2023-05-08T21:31:32.370Z,60.32
2023-05-08T21:34:02.247Z,60.05
2023-05-08T21:36:32.397Z,59.78
2023-05-08T21:39:02.232Z,59.98
2023-05-08T21:41:33.262Z,59.70
2023-05-08T21:44:05.751Z,60.06
2023-05-08T21:46:35.648Z,60.23
2023-05-08T21:49:05.858Z,60.19
2023-05-08T21:51:36.059Z,60.22
2023-05-08T21:54:05.922Z,60.61
2023-05-08T21:56:35.753Z,60.89
2023-05-08T21:59:08.257Z,60.22
2023-05-08T22:01:38.208Z,60.73
2023-05-08T22:04:08.095Z,60.33
2023-05-08T22:06:37.905Z,60.70
2023-05-08T22:09:07.783Z,60.93
2023-05-08T22:11:37.622Z,60.86
2023-05-08T22:14:10.146Z,60.94
2023-05-08T22:16:39.954Z,61.72
2023-05-08T22:19:10.100Z,61.27
2023-05-08T22:21:39.943Z,60.06
2023-05-08T22:24:10.860Z,59.17
2023-05-08T22:26:40.706Z,58.50
2023-05-08T22:29:13.169Z,57.79
2023-05-08T22:31:43.034Z,57.69
2023-05-08T22:34:12.880Z,57.89
2023-05-08T22:36:42.973Z,57.19
2023-05-08T22:39:13.127Z,56.88
2023-05-08T22:41:43.175Z,56.29
2023-05-08T22:44:15.846Z,56.33
2023-05-08T22:46:45.835Z,56.41
2023-05-08T22:49:15.781Z,56.01
2023-05-08T22:51:45.658Z,56.98
2023-05-08T22:54:15.473Z,57.37
2023-05-08T22:56:45.368Z,56.53
2023-05-08T22:59:17.810Z,55.22
2023-05-08T23:01:47.614Z,54.77
2023-05-08T23:04:17.519Z,55.31
2023-05-08T23:06:47.367Z,55.40
2023-05-08T23:09:17.181Z,57.47
2023-05-08T23:11:47.594Z,59.81
2023-05-08T23:14:20.077Z,59.02
2023-05-08T23:16:50.029Z,60.02
2023-05-08T23:19:19.874Z,62.35
2023-05-08T23:21:49.699Z,64.06
2023-05-08T23:24:20.029Z,65.80
2023-05-08T23:26:52.626Z,66.67
2023-05-08T23:29:25.048Z,67.39
2023-05-08T23:31:54.885Z,67.20
2023-05-08T23:34:24.716Z,67.56
2023-05-08T23:36:54.565Z,67.72
2023-05-08T23:39:24.416Z,67.47
2023-05-08T23:41:54.270Z,66.66
2023-05-08T23:44:27.008Z,66.50
2023-05-08T23:46:56.871Z,66.11
2023-05-08T23:49:26.727Z,65.68
2023-05-08T23:51:56.622Z,64.93
2023-05-08T23:54:26.417Z,65.36
2023-05-08T23:56:56.340Z,64.71
2023-05-08T23:59:28.862Z,63.97
